createdAt,value
2018-05-17T00:02:11.304Z,20.47
2018-05-17T00:04:39.180Z,18.50
2018-05-17T00:07:07.660Z,20.90
2018-05-17T00:09:36.124Z,20.30
2018-05-17T00:12:03.862Z,19.77
2018-05-17T00:14:31.536Z,19.83
2018-05-17T00:16:59.221Z,20.87
2018-05-17T00:19:26.998Z,19.53
2018-05-17T00:21:55.440Z,23.23
2018-05-17T00:24:23.144Z,23.10
2018-05-17T00:26:51.610Z,21.67
2018-05-17T00:29:19.284Z,17.47
2018-05-17T00:31:47.737Z,17.10
2018-05-17T00:34:15.420Z,19.90
2018-05-17T00:36:43.916Z,19.13
2018-05-17T00:39:12.356Z,18.57
2018-05-17T00:41:40.037Z,20.97
2018-05-17T00:44:07.717Z,20.60
2018-05-17T00:46:36.182Z,21.17
2018-05-17T00:49:04.646Z,19.53
2018-05-17T00:51:32.816Z,18.60
2018-05-17T00:54:00.479Z,18.10
2018-05-17T00:56:28.161Z,20.50
2018-05-17T00:58:55.843Z,20.13
2018-05-17T01:01:24.308Z,20.90
2018-05-17T01:03:52.008Z,20.43
2018-05-17T01:06:19.705Z,16.47
2018-05-17T01:08:47.476Z,23.23
2018-05-17T01:11:15.157Z,19.40
2018-05-17T01:13:42.861Z,25.90
2018-05-17T01:16:10.549Z,27.23
2018-05-17T01:18:38.224Z,20.23
2018-05-17T01:21:05.936Z,21.27
2018-05-17T01:23:33.971Z,23.93
2018-05-17T01:26:01.653Z,22.93
2018-05-17T01:28:30.097Z,23.60
2018-05-17T01:30:57.788Z,21.87
2018-05-17T01:33:25.464Z,23.40
2018-05-17T01:35:53.908Z,20.67
2018-05-17T01:38:28.676Z,26.43
2018-05-17T01:40:57.236Z,19.77
2018-05-17T01:43:24.922Z,34.53
2018-05-17T01:45:52.632Z,26.97
2018-05-17T01:48:20.304Z,36.77
2018-05-17T01:50:47.984Z,30.37
2018-05-17T01:53:15.668Z,29.90
2018-05-17T01:55:44.131Z,21.50
2018-05-17T01:58:11.833Z,21.07
2018-05-17T02:00:39.604Z,20.47
2018-05-17T02:03:07.290Z,25.87
2018-05-17T02:05:34.966Z,22.60
2018-05-17T02:08:02.665Z,32.20
2018-05-17T02:10:31.229Z,22.90
2018-05-17T02:12:59.180Z,21.20
2018-05-17T02:15:26.861Z,27.00
2018-05-17T02:17:54.553Z,21.80
2018-05-17T02:20:22.290Z,21.37
2018-05-17T02:22:49.964Z,25.00
2018-05-17T02:25:17.656Z,19.27
2018-05-17T02:27:45.697Z,21.37
2018-05-17T02:30:14.164Z,22.83
2018-05-17T02:32:41.846Z,24.97
2018-05-17T02:35:10.292Z,18.40
2018-05-17T02:37:37.969Z,21.40
2018-05-17T02:40:05.681Z,21.03
2018-05-17T02:42:33.369Z,16.63
2018-05-17T02:45:01.074Z,16.00
2018-05-17T02:47:29.516Z,17.43
2018-05-17T02:49:57.203Z,19.07
2018-05-17T02:52:24.893Z,18.87
2018-05-17T02:54:52.581Z,17.93
2018-05-17T02:57:20.332Z,17.57
2018-05-17T02:59:48.058Z,16.30
2018-05-17T03:02:16.517Z,17.77
2018-05-17T03:04:44.198Z,17.47
2018-05-17T03:07:11.876Z,17.13
2018-05-17T03:09:40.345Z,17.23
2018-05-17T03:12:08.208Z,16.17
2018-05-17T03:14:35.886Z,16.67
2018-05-17T03:17:04.372Z,15.90
2018-05-17T03:19:32.833Z,17.53
2018-05-17T03:22:00.512Z,16.60
2018-05-17T03:24:28.226Z,17.30
2018-05-17T03:26:55.921Z,15.63
2018-05-17T03:29:24.604Z,15.20
2018-05-17T03:31:53.132Z,17.00
2018-05-17T03:34:20.817Z,13.10
2018-05-17T03:36:48.533Z,13.53
2018-05-17T03:39:16.970Z,15.03
2018-05-17T03:41:44.657Z,20.73
2018-05-17T03:44:12.336Z,21.73
2018-05-17T03:46:40.793Z,20.03
2018-05-17T03:49:08.532Z,18.93
2018-05-17T03:51:36.228Z,14.63
2018-05-17T03:54:03.933Z,13.60
2018-05-17T03:56:31.620Z,15.33
2018-05-17T03:58:59.312Z,14.40
2018-05-17T04:01:38.888Z,13.27
2018-05-17T04:04:18.953Z,13.87
2018-05-17T04:06:46.640Z,14.10
2018-05-17T04:09:14.333Z,15.57
2018-05-17T04:11:42.041Z,15.97
2018-05-17T04:14:09.793Z,14.70
2018-05-17T04:16:37.529Z,12.13
2018-05-17T04:19:05.214Z,14.70
2018-05-17T04:21:33.096Z,15.17
2018-05-17T04:24:00.802Z,16.43
2018-05-17T04:26:28.530Z,15.27
2018-05-17T04:28:56.264Z,16.07
2018-05-17T04:31:24.808Z,13.60
2018-05-17T04:33:52.615Z,13.20
2018-05-17T04:36:21.220Z,15.50
2018-05-17T04:38:48.925Z,17.83
2018-05-17T04:41:17.874Z,17.40
2018-05-17T04:43:45.649Z,17.97
2018-05-17T04:46:13.461Z,17.07
2018-05-17T04:48:41.204Z,16.87
2018-05-17T04:51:08.908Z,16.70
2018-05-17T04:53:37.468Z,14.83
2018-05-17T04:56:05.158Z,14.80
2018-05-17T04:58:33.697Z,15.70
2018-05-17T05:01:01.396Z,14.90
2018-05-17T05:03:29.883Z,16.70
2018-05-17T05:05:58.373Z,17.60
2018-05-17T05:08:26.109Z,18.93
2018-05-17T05:10:53.917Z,16.97
2018-05-17T05:13:21.609Z,17.23
2018-05-17T05:15:49.329Z,17.40
2018-05-17T05:18:17.033Z,17.57
2018-05-17T05:20:44.772Z,16.83
2018-05-17T05:23:12.485Z,15.20
2018-05-17T05:25:40.335Z,15.90
2018-05-17T05:28:08.036Z,16.10
2018-05-17T05:30:36.569Z,16.90
2018-05-17T05:33:04.335Z,17.60
2018-05-17T05:35:32.033Z,17.30
2018-05-17T05:37:59.741Z,17.50
2018-05-17T05:40:27.527Z,16.70
2018-05-17T05:42:55.272Z,16.20
2018-05-17T05:45:23.054Z,16.17
2018-05-17T05:47:50.833Z,14.73
2018-05-17T05:50:18.612Z,16.20
2018-05-17T05:52:46.393Z,16.37
2018-05-17T05:55:14.926Z,17.43
2018-05-17T05:57:42.704Z,17.60
2018-05-17T06:00:10.525Z,17.57
2018-05-17T06:02:38.268Z,17.13
2018-05-17T06:05:06.022Z,17.73
2018-05-17T06:07:33.718Z,18.03
2018-05-17T06:10:01.462Z,17.23
2018-05-17T06:12:30.410Z,17.60
2018-05-17T06:14:58.154Z,18.53
2018-05-17T06:17:26.042Z,19.10
2018-05-17T06:19:54.516Z,18.30
2018-05-17T06:22:22.238Z,18.93
2018-05-17T06:24:50.805Z,18.13
2018-05-17T06:27:19.324Z,18.17
2018-05-17T06:29:47.151Z,18.40
2018-05-17T06:32:15.641Z,17.93
2018-05-17T06:34:44.133Z,18.10
2018-05-17T06:37:12.661Z,17.23
2018-05-17T06:39:40.405Z,18.10
2018-05-17T06:42:08.156Z,17.53
2018-05-17T06:44:36.260Z,16.63
2018-05-17T06:47:04.020Z,17.53
2018-05-17T06:49:31.738Z,17.50
2018-05-17T06:51:59.543Z,16.53
2018-05-17T06:54:27.296Z,16.40
2018-05-17T06:56:55.017Z,16.90
2018-05-17T06:59:22.760Z,16.87
2018-05-17T07:01:50.511Z,16.13
2018-05-17T07:04:18.255Z,17.13
2018-05-17T07:06:46.021Z,16.87
2018-05-17T07:09:13.762Z,16.80
2018-05-17T07:11:41.578Z,16.30
2018-05-17T07:14:09.319Z,16.60
2018-05-17T07:16:37.331Z,17.23
2018-05-17T07:19:05.105Z,16.17
2018-05-17T07:21:33.664Z,15.40
2018-05-17T07:24:01.456Z,15.60
2018-05-17T07:26:29.177Z,16.73
2018-05-17T07:28:56.889Z,15.60
2018-05-17T07:31:25.439Z,15.10
2018-05-17T07:33:53.242Z,14.27
2018-05-17T07:36:21.713Z,15.57
2018-05-17T07:38:50.203Z,15.60
2018-05-17T07:41:19.788Z,15.93
2018-05-17T07:43:47.480Z,15.10
2018-05-17T07:46:15.224Z,15.33
2018-05-17T07:48:44.058Z,14.97
2018-05-17T07:51:11.852Z,14.40
2018-05-17T07:53:39.634Z,15.67
2018-05-17T07:56:07.381Z,14.53
2018-05-17T07:58:35.077Z,14.80
2018-05-17T08:01:03.614Z,14.47
2018-05-17T08:03:31.394Z,15.47
2018-05-17T08:05:59.177Z,13.80
2018-05-17T08:08:26.916Z,13.03
2018-05-17T08:10:54.696Z,13.90
2018-05-17T08:13:22.443Z,13.50
2018-05-17T08:15:50.200Z,13.50
2018-05-17T08:18:17.959Z,12.27
2018-05-17T08:20:45.914Z,12.30
2018-05-17T08:23:13.663Z,12.20
2018-05-17T08:25:41.432Z,12.27
2018-05-17T08:28:09.176Z,11.93
2018-05-17T08:30:36.992Z,11.87
2018-05-17T08:33:04.801Z,11.63
2018-05-17T08:35:33.285Z,10.50
2018-05-17T08:38:02.006Z,11.20
2018-05-17T08:40:29.748Z,10.70
2018-05-17T08:42:58.300Z,10.27
2018-05-17T08:45:26.058Z,11.13
2018-05-17T08:47:53.885Z,11.27
2018-05-17T08:50:21.664Z,10.63
2018-05-17T08:52:49.414Z,10.97
2018-05-17T08:55:17.230Z,10.57
2018-05-17T08:57:44.955Z,9.80
2018-05-17T09:00:12.704Z,9.00
2018-05-17T09:02:40.440Z,7.80
2018-05-17T09:05:08.901Z,8.70
2018-05-17T09:07:37.384Z,7.40
2018-05-17T09:10:05.221Z,7.57
2018-05-17T09:12:32.984Z,7.37
2018-05-17T09:15:00.681Z,7.60
2018-05-17T09:17:29.168Z,6.40
2018-05-17T09:19:58.671Z,5.93
2018-05-17T09:22:27.169Z,6.37
2018-05-17T09:24:55.159Z,5.93
2018-05-17T09:27:22.898Z,6.53
2018-05-17T09:29:51.409Z,7.00
2018-05-17T09:32:19.124Z,6.00
2018-05-17T09:34:47.615Z,5.47
2018-05-17T09:37:16.128Z,4.23
2018-05-17T09:39:43.854Z,5.30
2018-05-17T09:42:11.682Z,4.30
2018-05-17T09:44:39.371Z,4.57
2018-05-17T09:47:07.081Z,3.97
2018-05-17T09:49:34.801Z,4.00
2018-05-17T09:52:02.600Z,5.00
2018-05-17T09:54:30.360Z,3.90
2018-05-17T09:56:58.109Z,4.07
2018-05-17T09:59:26.577Z,3.70
2018-05-17T10:01:54.356Z,3.20
2018-05-17T10:04:22.105Z,3.40
2018-05-17T10:06:49.878Z,3.10
2018-05-17T10:09:18.345Z,3.50
2018-05-17T10:11:46.180Z,3.50
2018-05-17T10:14:14.113Z,3.30
2018-05-17T10:16:41.820Z,3.90
2018-05-17T10:19:09.515Z,3.47
2018-05-17T10:21:38.071Z,3.40
2018-05-17T10:24:05.829Z,2.70
2018-05-17T10:26:33.565Z,3.53
2018-05-17T10:29:01.261Z,4.40
2018-05-17T10:31:29.000Z,4.53
2018-05-17T10:33:57.022Z,4.60
2018-05-17T10:36:24.808Z,3.97
2018-05-17T10:38:52.533Z,3.97
2018-05-17T10:41:20.321Z,4.63
2018-05-17T10:43:48.805Z,4.90
2018-05-17T10:46:17.296Z,4.57
2018-05-17T10:48:45.787Z,4.53
2018-05-17T10:51:13.561Z,4.60
2018-05-17T10:53:41.342Z,4.53
2018-05-17T10:56:09.056Z,3.87
2018-05-17T10:58:36.823Z,4.40
2018-05-17T11:01:06.375Z,4.60
2018-05-17T11:03:34.234Z,5.37
2018-05-17T11:06:01.987Z,4.97
2018-05-17T11:08:29.749Z,4.73
2018-05-17T11:10:57.550Z,4.53
2018-05-17T11:13:25.391Z,5.47
2018-05-17T11:15:53.085Z,5.20
2018-05-17T11:18:20.816Z,4.80
2018-05-17T11:20:48.552Z,5.97
2018-05-17T11:23:17.101Z,6.27
2018-05-17T11:25:44.779Z,5.90
2018-05-17T11:28:12.564Z,5.80
2018-05-17T11:30:41.148Z,5.47
2018-05-17T11:33:09.707Z,5.33
2018-05-17T11:35:38.189Z,5.17
2018-05-17T11:38:05.962Z,4.90
2018-05-17T11:40:33.769Z,4.37
2018-05-17T11:43:01.469Z,4.37
2018-05-17T11:45:29.231Z,4.70
2018-05-17T11:47:56.958Z,4.53
2018-05-17T11:50:24.925Z,4.87
2018-05-17T11:52:52.566Z,4.63
2018-05-17T11:55:20.278Z,4.60
2018-05-17T11:57:48.024Z,4.30
2018-05-17T12:00:15.781Z,4.23
2018-05-17T12:02:43.589Z,4.57
2018-05-17T12:05:11.312Z,4.10
2018-05-17T12:07:39.116Z,4.33
2018-05-17T12:10:07.561Z,4.80
2018-05-17T12:12:35.288Z,4.40
2018-05-17T12:15:03.861Z,4.63
2018-05-17T12:17:31.617Z,5.10
2018-05-17T12:19:59.354Z,5.20
2018-05-17T12:22:27.120Z,4.70
2018-05-17T12:24:54.868Z,4.83
2018-05-17T12:27:22.597Z,4.73
2018-05-17T12:29:51.112Z,5.13
2018-05-17T12:32:18.821Z,5.13
2018-05-17T12:34:46.533Z,5.10
2018-05-17T12:37:14.300Z,4.03
2018-05-17T12:39:42.028Z,4.60
2018-05-17T12:42:10.478Z,4.00
2018-05-17T12:44:38.212Z,3.80
2018-05-17T12:47:05.934Z,4.30
2018-05-17T12:49:34.432Z,4.83
2018-05-17T12:52:02.150Z,4.77
2018-05-17T12:54:29.947Z,5.00
2018-05-17T12:56:58.448Z,4.77
2018-05-17T12:59:26.157Z,5.40
2018-05-17T13:01:53.869Z,4.43
2018-05-17T13:04:21.585Z,4.00
2018-05-17T13:06:49.749Z,4.80
2018-05-17T13:09:17.473Z,4.70
2018-05-17T13:11:45.492Z,4.30
2018-05-17T13:14:13.069Z,4.33
2018-05-17T13:16:40.768Z,4.63
2018-05-17T13:19:08.475Z,4.10
2018-05-17T13:21:36.194Z,4.07
2018-05-17T13:24:04.022Z,4.33
2018-05-17T13:26:31.919Z,4.23
2018-05-17T13:28:59.659Z,3.93
2018-05-17T13:31:27.505Z,3.93
2018-05-17T13:33:56.087Z,3.70
2018-05-17T13:36:23.804Z,4.20
2018-05-17T13:38:51.512Z,3.70
2018-05-17T13:41:19.242Z,4.43
2018-05-17T13:43:46.957Z,4.20
2018-05-17T13:46:14.693Z,4.50
2018-05-17T13:48:42.505Z,4.33
2018-05-17T13:51:11.045Z,4.43
2018-05-17T13:53:38.841Z,4.30
2018-05-17T13:56:06.613Z,3.87
2018-05-17T13:58:35.110Z,3.90
2018-05-17T14:01:02.885Z,4.27
2018-05-17T14:03:30.592Z,4.30
2018-05-17T14:05:58.503Z,4.97
2018-05-17T14:08:27.051Z,5.00
2018-05-17T14:10:55.105Z,4.70
2018-05-17T14:13:22.844Z,4.87
2018-05-17T14:15:50.573Z,5.20
2018-05-17T14:18:19.032Z,5.47
2018-05-17T14:20:46.784Z,5.00
2018-05-17T14:23:14.537Z,4.20
2018-05-17T14:25:42.265Z,4.03
2018-05-17T14:28:10.013Z,4.27
2018-05-17T14:30:38.594Z,3.70
2018-05-17T14:33:07.117Z,4.22
2018-05-17T14:35:34.872Z,4.05
2018-05-17T14:38:02.605Z,3.37
2018-05-17T14:40:31.151Z,3.53
2018-05-17T14:42:59.225Z,3.70
2018-05-17T14:45:26.983Z,3.65
2018-05-17T14:47:54.672Z,3.72
2018-05-17T14:50:22.421Z,3.37
2018-05-17T14:52:50.139Z,3.72
2018-05-17T14:55:17.984Z,3.45
2018-05-17T14:57:45.600Z,3.50
2018-05-17T15:00:13.311Z,3.83
2018-05-17T15:02:41.075Z,3.28
2018-05-17T15:05:09.589Z,3.58
2018-05-17T15:07:37.279Z,3.12
2018-05-17T15:10:05.059Z,3.55
2018-05-17T15:12:32.845Z,3.03
2018-05-17T15:15:01.421Z,2.85
2018-05-17T15:17:29.922Z,3.15
2018-05-17T15:19:57.756Z,2.92
2018-05-17T15:22:25.513Z,3.33
2018-05-17T15:24:53.371Z,3.12
2018-05-17T15:27:21.127Z,3.58
2018-05-17T15:29:49.102Z,3.05
2018-05-17T15:32:17.503Z,3.15
2018-05-17T15:34:45.249Z,2.72
2018-05-17T15:37:13.001Z,2.78
2018-05-17T15:39:40.765Z,3.30
2018-05-17T15:42:08.489Z,3.40
2018-05-17T15:44:36.217Z,3.10
2018-05-17T15:47:04.159Z,3.60
2018-05-17T15:49:31.949Z,3.42
2018-05-17T15:51:59.698Z,2.95
2018-05-17T15:54:27.396Z,3.53
2018-05-17T15:56:55.889Z,3.87
2018-05-17T15:59:23.645Z,3.90
2018-05-17T16:01:52.181Z,3.10
2018-05-17T16:04:19.912Z,3.30
2018-05-17T16:06:47.719Z,3.35
2018-05-17T16:09:15.417Z,3.30
2018-05-17T16:11:43.970Z,3.30
2018-05-17T16:14:11.768Z,3.80
2018-05-17T16:16:40.268Z,3.83
2018-05-17T16:19:08.276Z,4.53
2018-05-17T16:21:35.972Z,4.65
2018-05-17T16:24:03.748Z,4.50
2018-05-17T16:26:31.508Z,4.10
2018-05-17T16:29:00.073Z,3.80
2018-05-17T16:31:27.837Z,4.70
2018-05-17T16:33:55.588Z,5.00
2018-05-17T16:36:23.282Z,5.30
2018-05-17T16:38:51.822Z,4.87
2018-05-17T16:41:19.515Z,5.30
2018-05-17T16:43:47.227Z,6.20
2018-05-17T16:46:14.998Z,6.13
2018-05-17T16:48:42.713Z,6.10
2018-05-17T16:51:11.661Z,5.27
2018-05-17T16:53:39.393Z,5.60
2018-05-17T16:56:07.139Z,5.40
2018-05-17T16:58:35.652Z,6.33
2018-05-17T17:01:03.468Z,5.97
2018-05-17T17:03:31.206Z,5.00
2018-05-17T17:05:58.921Z,7.07
2018-05-17T17:08:27.386Z,6.07
2018-05-17T17:10:55.200Z,5.27
2018-05-17T17:13:22.917Z,6.43
2018-05-17T17:15:51.462Z,7.00
2018-05-17T17:18:19.176Z,6.83
2018-05-17T17:20:46.933Z,6.87
2018-05-17T17:23:15.476Z,7.17
2018-05-17T17:25:43.213Z,6.60
2018-05-17T17:28:10.940Z,6.80
2018-05-17T17:30:39.460Z,7.17
2018-05-17T17:33:07.181Z,6.87
2018-05-17T17:35:35.675Z,6.83
2018-05-17T17:38:04.168Z,6.43
2018-05-17T17:40:37.605Z,6.47
2018-05-17T17:43:05.380Z,5.77
2018-05-17T17:45:33.150Z,5.70
2018-05-17T17:48:00.856Z,5.40
2018-05-17T17:50:28.624Z,5.43
2018-05-17T17:52:56.329Z,5.30
2018-05-17T17:55:24.499Z,5.17
2018-05-17T17:57:52.229Z,5.33
2018-05-17T18:00:20.034Z,5.27
2018-05-17T18:02:47.773Z,5.37
2018-05-17T18:05:15.534Z,5.47
2018-05-17T18:07:43.248Z,5.73
2018-05-17T18:10:11.043Z,5.57
2018-05-17T18:12:38.753Z,5.10
2018-05-17T18:15:06.621Z,5.87
2018-05-17T18:17:34.322Z,6.50
2018-05-17T18:20:02.823Z,6.17
2018-05-17T18:22:30.548Z,6.20
2018-05-17T18:24:58.368Z,6.00
2018-05-17T18:27:26.465Z,5.33
2018-05-17T18:29:54.184Z,5.53
2018-05-17T18:32:21.915Z,6.20
2018-05-17T18:34:50.510Z,5.93
2018-05-17T18:37:19.001Z,5.93
2018-05-17T18:39:47.557Z,5.97
2018-05-17T18:42:15.303Z,5.53
2018-05-17T18:44:43.027Z,6.03
2018-05-17T18:47:10.768Z,5.87
2018-05-17T18:49:39.280Z,5.77
2018-05-17T18:52:07.001Z,6.40
2018-05-17T18:54:34.788Z,6.03
2018-05-17T18:57:02.630Z,5.93
2018-05-17T18:59:30.377Z,6.43
2018-05-17T19:01:58.157Z,6.37
2018-05-17T19:04:25.891Z,6.27
2018-05-17T19:06:53.592Z,6.23
2018-05-17T19:09:21.291Z,6.43
2018-05-17T19:11:49.020Z,5.83
2018-05-17T19:14:16.777Z,7.07
2018-05-17T19:16:44.521Z,6.57
2018-05-17T19:19:12.293Z,6.63
2018-05-17T19:21:40.054Z,6.73
2018-05-17T19:24:07.800Z,6.43
2018-05-17T19:26:35.537Z,6.53
2018-05-17T19:29:03.281Z,6.27
2018-05-17T19:31:31.830Z,6.77
2018-05-17T19:33:59.645Z,7.10
2018-05-17T19:36:27.372Z,7.20
2018-05-17T19:38:55.104Z,7.50
2018-05-17T19:41:22.822Z,7.10
2018-05-17T19:43:51.356Z,6.60
2018-05-17T19:46:19.082Z,7.07
2018-05-17T19:48:46.781Z,7.50
2018-05-17T19:51:14.570Z,7.63
2018-05-17T19:53:42.313Z,7.83
2018-05-17T19:56:10.059Z,8.00
2018-05-17T19:58:37.781Z,8.37
2018-05-17T20:01:06.324Z,7.60
2018-05-17T20:03:34.182Z,8.17
2018-05-17T20:06:01.886Z,8.17
2018-05-17T20:08:30.387Z,8.23
2018-05-17T20:10:58.145Z,7.50
2018-05-17T20:13:26.609Z,8.67
2018-05-17T20:15:54.300Z,7.70
2018-05-17T20:18:22.077Z,7.60
2018-05-17T20:20:49.796Z,7.90
2018-05-17T20:23:17.539Z,8.30
2018-05-17T20:25:45.245Z,8.07
2018-05-17T20:28:14.042Z,8.03
2018-05-17T20:30:41.846Z,7.20
2018-05-17T20:33:09.548Z,8.77
2018-05-17T20:35:37.248Z,8.10
2018-05-17T20:38:04.940Z,8.30
2018-05-17T20:40:32.630Z,7.67
2018-05-17T20:43:00.304Z,8.30
2018-05-17T20:45:28.743Z,8.30
2018-05-17T20:47:56.412Z,8.00
2018-05-17T20:50:24.072Z,8.20
2018-05-17T20:52:51.789Z,8.43
2018-05-17T20:55:20.241Z,7.80
2018-05-17T20:57:47.916Z,7.97
2018-05-17T21:00:16.382Z,7.77
2018-05-17T21:02:44.091Z,7.90
2018-05-17T21:05:11.790Z,8.13
2018-05-17T21:07:39.481Z,7.33
2018-05-17T21:10:07.958Z,7.73
2018-05-17T21:12:36.411Z,7.60
2018-05-17T21:15:04.173Z,8.47
2018-05-17T21:17:31.870Z,7.43
2018-05-17T21:20:00.341Z,7.97
2018-05-17T21:22:28.021Z,8.00
2018-05-17T21:24:56.465Z,8.33
2018-05-17T21:27:24.253Z,8.17
2018-05-17T21:29:51.928Z,8.17
2018-05-17T21:32:20.369Z,7.50
2018-05-17T21:34:48.825Z,7.90
2018-05-17T21:37:16.505Z,8.17
2018-05-17T21:39:44.346Z,7.60
2018-05-17T21:42:12.034Z,8.73
2018-05-17T21:44:39.708Z,8.67
2018-05-17T21:47:07.373Z,6.90
2018-05-17T21:49:35.053Z,7.80
2018-05-17T21:52:03.577Z,7.80
2018-05-17T21:54:31.281Z,9.20
2018-05-17T21:56:58.966Z,9.30
2018-05-17T21:59:27.444Z,9.23
2018-05-17T22:01:55.116Z,8.73
2018-05-17T22:04:23.565Z,8.37
2018-05-17T22:06:51.297Z,9.77
2018-05-17T22:09:18.993Z,9.17
2018-05-17T22:11:47.028Z,7.90
2018-05-17T22:14:14.716Z,8.83
2018-05-17T22:16:42.448Z,9.53
2018-05-17T22:19:10.137Z,10.20
2018-05-17T22:21:37.837Z,10.40
2018-05-17T22:24:06.292Z,9.10
2018-05-17T22:26:33.978Z,9.87
2018-05-17T22:29:01.655Z,10.43
2018-05-17T22:31:30.220Z,9.73
2018-05-17T22:33:57.911Z,10.57
2018-05-17T22:36:25.614Z,10.83
2018-05-17T22:38:53.308Z,11.00
2018-05-17T22:41:21.154Z,10.20
2018-05-17T22:43:49.189Z,10.57
2018-05-17T22:46:16.917Z,10.60
2018-05-17T22:48:45.372Z,10.17
2018-05-17T22:51:13.053Z,12.20
2018-05-17T22:53:40.727Z,11.90
2018-05-17T22:56:09.277Z,11.97
2018-05-17T22:58:37.093Z,12.93
2018-05-17T23:01:04.876Z,12.00
2018-05-17T23:03:32.793Z,13.47
2018-05-17T23:06:00.529Z,12.70
2018-05-17T23:08:28.309Z,9.87
2018-05-17T23:10:56.005Z,11.67
2018-05-17T23:13:24.469Z,12.90
2018-05-17T23:15:52.173Z,12.47
2018-05-17T23:18:19.862Z,10.70
2018-05-17T23:20:47.557Z,12.50
2018-05-17T23:23:15.329Z,11.77
2018-05-17T23:25:43.776Z,11.40
2018-05-17T23:28:11.469Z,11.77
2018-05-17T23:30:39.233Z,11.67
2018-05-17T23:33:06.921Z,13.57
2018-05-17T23:35:34.639Z,10.87
2018-05-17T23:38:02.321Z,10.77
2018-05-17T23:40:55.960Z,14.43
2018-05-17T23:43:23.648Z,14.37
2018-05-17T23:45:51.325Z,13.70
2018-05-17T23:48:19.792Z,15.60
2018-05-17T23:50:47.560Z,14.03
2018-05-17T23:53:15.237Z,11.63
2018-05-17T23:55:43.680Z,14.07
2018-05-17T23:58:11.366Z,10.53
